createdAt,value
2018-12-02T00:00:10.424Z,98280.95
2018-12-02T00:02:37.680Z,98271.98
2018-12-02T00:05:07.367Z,98265.41
2018-12-02T00:07:34.640Z,98260.94
2018-12-02T00:10:02.068Z,98258.31
2018-12-02T00:12:29.189Z,98254.36
2018-12-02T00:14:56.320Z,98251.20
2018-12-02T00:17:23.428Z,98244.88
2018-12-02T00:19:50.636Z,98239.60
2018-12-02T00:22:17.820Z,98234.06
2018-12-02T00:24:45.049Z,98229.59
2018-12-02T00:27:12.575Z,98221.17
2018-12-02T00:29:39.995Z,98223.02
2018-12-02T00:32:07.143Z,98214.08
2018-12-02T00:34:34.296Z,98210.64
2018-12-02T00:37:01.471Z,98206.45
2018-12-02T00:39:28.580Z,98204.86
2018-12-02T00:41:55.726Z,98200.36
2018-12-02T00:44:22.895Z,98191.94
2018-12-02T00:46:50.053Z,98195.64
2018-12-02T00:49:17.209Z,98187.75
2018-12-02T00:51:44.401Z,98184.84
2018-12-02T00:54:11.629Z,98188.51
2018-12-02T00:56:38.912Z,98181.69
2018-12-02T00:59:06.168Z,98175.62
2018-12-02T01:01:33.392Z,98183.52
2018-12-02T01:04:00.624Z,98181.92
2018-12-02T01:06:27.825Z,98178.73
2018-12-02T01:08:55.028Z,98176.89
2018-12-02T01:11:22.192Z,98169.55
2018-12-02T01:13:49.452Z,98170.59
2018-12-02T01:16:16.704Z,98158.98
2018-12-02T01:18:44.472Z,98166.36
2018-12-02T01:21:11.691Z,98162.39
2018-12-02T01:23:39.482Z,98161.08
2018-12-02T01:26:06.664Z,98162.39
2018-12-02T01:28:33.925Z,98083.84
2018-12-02T01:31:01.324Z,98151.86
2018-12-02T01:33:28.456Z,98160.28
2018-12-02T01:35:55.580Z,98149.98
2018-12-02T01:38:22.773Z,98155.52
2018-12-02T01:40:49.940Z,98155.52
2018-12-02T01:43:17.063Z,98144.47
2018-12-02T01:45:44.309Z,98150.48
2018-12-02T01:48:11.461Z,98148.09
2018-12-02T01:50:38.674Z,98142.56
2018-12-02T01:53:05.883Z,98131.25
2018-12-02T01:55:33.007Z,98140.46
2018-12-02T01:58:00.154Z,98127.79
2018-12-02T02:00:27.767Z,98116.19
2018-12-02T02:02:55.749Z,98110.16
2018-12-02T02:05:23.713Z,98108.56
2018-12-02T02:07:51.027Z,98110.40
2018-12-02T02:10:26.684Z,97977.61
2018-12-02T02:12:53.886Z,98097.20
2018-12-02T02:15:21.178Z,98089.03
2018-12-02T02:17:48.329Z,98090.05
2018-12-02T02:20:16.396Z,98080.58
2018-12-02T02:22:43.822Z,98079.55
2018-12-02T02:25:12.770Z,98071.65
2018-12-02T02:27:40.880Z,98072.11
2018-12-02T02:30:12.892Z,98068.36
2018-12-02T02:32:40.104Z,98057.58
2018-12-02T02:35:07.701Z,98057.89
2018-12-02T02:37:34.802Z,98054.23
2018-12-02T02:40:02.306Z,98049.70
2018-12-02T02:42:29.421Z,98048.65
2018-12-02T02:44:56.581Z,98038.05
2018-12-02T02:47:23.695Z,98033.56
2018-12-02T02:49:50.846Z,98039.11
2018-12-02T02:52:18.032Z,98027.27
2018-12-02T02:54:45.212Z,98024.34
2018-12-02T02:57:12.342Z,98026.17
2018-12-02T02:59:39.518Z,98015.41
2018-12-02T03:02:06.726Z,98009.28
2018-12-02T03:04:33.833Z,98004.80
2018-12-02T03:07:01.111Z,98006.94
2018-12-02T03:09:28.272Z,98005.26
2018-12-02T03:11:55.421Z,97992.62
2018-12-02T03:14:22.593Z,97999.21
2018-12-02T03:16:49.691Z,98001.30
2018-12-02T03:19:16.968Z,97989.45
2018-12-02T03:21:44.136Z,97984.31
2018-12-02T03:24:11.265Z,97984.81
2018-12-02T03:26:38.477Z,97977.70
2018-12-02T03:29:05.638Z,97974.45
2018-12-02T03:31:32.851Z,97975.95
2018-12-02T03:34:00.120Z,97961.73
2018-12-02T03:36:27.309Z,97968.36
2018-12-02T03:38:54.482Z,97968.55
2018-12-02T03:41:21.653Z,97961.15
2018-12-02T03:43:48.777Z,97965.90
2018-12-02T03:46:15.926Z,97966.42
2018-12-02T03:48:43.080Z,97960.05
2018-12-02T03:51:10.224Z,97963.88
2018-12-02T03:53:37.377Z,97962.16
2018-12-02T03:56:04.496Z,97958.01
2018-12-02T03:58:31.660Z,97954.83
2018-12-02T04:00:58.826Z,97952.70
2018-12-02T04:03:25.978Z,97944.98
2018-12-02T04:05:53.100Z,97957.41
2018-12-02T04:08:20.288Z,97950.08
2018-12-02T04:10:47.406Z,97937.92
2018-12-02T04:13:14.594Z,97941.36
2018-12-02T04:15:41.774Z,97932.11
2018-12-02T04:18:08.972Z,97940.98
2018-12-02T04:20:36.144Z,97934.64
2018-12-02T04:23:03.303Z,97924.70
2018-12-02T04:25:30.400Z,97918.84
2018-12-02T04:27:57.500Z,97924.86
2018-12-02T04:30:24.625Z,97914.32
2018-12-02T04:32:52.425Z,97920.94
2018-12-02T04:35:24.330Z,97921.20
2018-12-02T04:37:51.544Z,97908.55
2018-12-02T04:40:18.655Z,97913.34
2018-12-02T04:42:45.828Z,97905.33
2018-12-02T04:45:14.440Z,97898.23
2018-12-02T04:47:41.538Z,97899.02
2018-12-02T04:50:13.747Z,97894.88
2018-12-02T04:52:40.873Z,97900.16
2018-12-02T04:55:08.660Z,97887.78
2018-12-02T04:57:35.819Z,97892.56
2018-12-02T05:00:03.076Z,97883.52
2018-12-02T05:02:30.206Z,97889.84
2018-12-02T05:04:57.400Z,97885.89
2018-12-02T05:07:24.536Z,97886.68
2018-12-02T05:09:51.733Z,97877.19
2018-12-02T05:12:18.897Z,97890.09
2018-12-02T05:14:46.004Z,97877.72
2018-12-02T05:17:13.127Z,97876.91
2018-12-02T05:19:40.310Z,97873.47
2018-12-02T05:22:07.429Z,97872.17
2018-12-02T05:24:34.536Z,97858.28
2018-12-02T05:27:01.696Z,97863.53
2018-12-02T05:29:29.032Z,97863.23
2018-12-02T05:31:56.202Z,97851.91
2018-12-02T05:34:23.276Z,97852.93
2018-12-02T05:36:50.475Z,97851.37
2018-12-02T05:39:17.632Z,97846.92
2018-12-02T05:41:50.506Z,97837.22
2018-12-02T05:44:17.668Z,97838.98
2018-12-02T05:46:44.836Z,97841.59
2018-12-02T05:49:11.980Z,97819.18
2018-12-02T05:51:39.106Z,97839.75
2018-12-02T05:54:06.269Z,97833.50
2018-12-02T05:56:33.427Z,97835.05
2018-12-02T05:59:00.607Z,97834.05
2018-12-02T06:01:27.712Z,97837.16
2018-12-02T06:03:54.856Z,97828.22
2018-12-02T06:06:21.975Z,97834.23
2018-12-02T06:08:49.119Z,97831.16
2018-12-02T06:11:16.273Z,97834.88
2018-12-02T06:13:43.453Z,97821.61
2018-12-02T06:16:10.613Z,97823.74
2018-12-02T06:18:37.809Z,97824.27
2018-12-02T06:21:05.043Z,97821.61
2018-12-02T06:23:32.186Z,97822.72
2018-12-02T06:25:59.358Z,97817.47
2018-12-02T06:28:26.494Z,97819.00
2018-12-02T06:30:53.706Z,97815.63
2018-12-02T06:33:20.829Z,97800.83
2018-12-02T06:35:48.012Z,97811.97
2018-12-02T06:38:15.217Z,97807.69
2018-12-02T06:40:42.388Z,97817.62
2018-12-02T06:43:09.467Z,97808.74
2018-12-02T06:45:36.581Z,97815.42
2018-12-02T06:48:03.751Z,97816.44
2018-12-02T06:50:30.853Z,97808.19
2018-12-02T06:52:57.956Z,97815.02
2018-12-02T06:56:02.396Z,97811.64
2018-12-02T06:58:44.534Z,97816.42
2018-12-02T07:01:30.535Z,97817.67
2018-12-02T07:04:38.343Z,97802.16
2018-12-02T07:07:05.677Z,97800.97
2018-12-02T07:09:32.847Z,97801.68
2018-12-02T07:11:59.963Z,97808.22
2018-12-02T07:14:27.079Z,97803.18
2018-12-02T07:16:54.256Z,97800.28
2018-12-02T07:19:29.282Z,97799.70
2018-12-02T07:22:33.704Z,97800.28
2018-12-02T07:25:06.672Z,97796.06
2018-12-02T07:27:33.815Z,97797.14
2018-12-02T07:30:00.949Z,97792.92
2018-12-02T07:32:28.058Z,97816.92
2018-12-02T07:34:55.223Z,97807.13
2018-12-02T07:37:23.206Z,97807.19
2018-12-02T07:40:28.540Z,97810.85
2018-12-02T07:42:55.795Z,97810.93
2018-12-02T07:45:22.988Z,97814.46
2018-12-02T07:47:50.073Z,97813.70
2018-12-02T07:50:17.226Z,97809.72
2018-12-02T07:52:44.380Z,97811.00
2018-12-02T07:55:11.562Z,97799.70
2018-12-02T07:57:38.725Z,97813.30
2018-12-02T08:00:10.037Z,97802.12
2018-12-02T08:02:37.178Z,97793.40
2018-12-02T08:05:05.988Z,97791.78
2018-12-02T08:07:33.257Z,97780.97
2018-12-02T08:10:00.646Z,97787.50
2018-12-02T08:12:28.701Z,97770.22
2018-12-02T08:14:56.062Z,97777.34
2018-12-02T08:17:23.302Z,97771.70
2018-12-02T08:19:50.484Z,97772.53
2018-12-02T08:22:17.676Z,97769.86
2018-12-02T08:24:44.852Z,97767.23
2018-12-02T08:27:12.036Z,97761.83
2018-12-02T08:29:39.221Z,97761.56
2018-12-02T08:32:06.374Z,97751.08
2018-12-02T08:34:33.617Z,97754.80
2018-12-02T08:37:00.888Z,97753.68
2018-12-02T08:39:28.159Z,97744.70
2018-12-02T08:41:55.413Z,97751.76
2018-12-02T08:44:22.527Z,97740.08
2018-12-02T08:46:49.818Z,97741.89
2018-12-02T08:49:16.971Z,97750.53
2018-12-02T08:51:44.358Z,97748.12
2018-12-02T08:54:11.593Z,97752.22
2018-12-02T08:56:38.842Z,97752.48
2018-12-02T08:59:06.147Z,97758.33
2018-12-02T09:01:33.277Z,97768.81
2018-12-02T09:04:00.413Z,97767.50
2018-12-02T09:06:27.605Z,97774.35
2018-12-02T09:08:54.736Z,97778.02
2018-12-02T09:11:21.853Z,97780.69
2018-12-02T09:13:48.984Z,97786.03
2018-12-02T09:16:16.204Z,97795.04
2018-12-02T09:18:43.372Z,97800.08
2018-12-02T09:21:10.557Z,97801.11
2018-12-02T09:23:37.773Z,97801.60
2018-12-02T09:26:05.504Z,97812.63
2018-12-02T09:28:32.793Z,97810.18
2018-12-02T09:31:00.007Z,97805.43
2018-12-02T09:33:27.178Z,97807.05
2018-12-02T09:35:54.348Z,97797.41
2018-12-02T09:38:21.716Z,97801.11
2018-12-02T09:40:48.988Z,97798.17
2018-12-02T09:43:16.502Z,97807.67
2018-12-02T09:45:43.678Z,97797.34
2018-12-02T09:48:10.875Z,97805.49
2018-12-02T09:50:38.045Z,97807.30
2018-12-02T09:53:06.782Z,97798.56
2018-12-02T09:55:37.421Z,97791.66
2018-12-02T09:58:07.487Z,97797.43
2018-12-02T10:00:34.656Z,97790.37
2018-12-02T10:03:01.927Z,97783.30
2018-12-02T10:05:29.061Z,97778.27
2018-12-02T10:07:56.192Z,97786.98
2018-12-02T10:10:23.396Z,97796.39
2018-12-02T10:13:00.052Z,97792.46
2018-12-02T10:15:27.209Z,97792.91
2018-12-02T10:17:54.367Z,97796.80
2018-12-02T10:20:21.511Z,97782.95
2018-12-02T10:22:48.754Z,97793.03
2018-12-02T10:25:17.413Z,97794.27
2018-12-02T10:27:44.679Z,97782.00
2018-12-02T10:30:15.100Z,97789.58
2018-12-02T10:32:42.263Z,97781.50
2018-12-02T10:35:09.501Z,97779.95
2018-12-02T10:37:36.769Z,97775.46
2018-12-02T10:40:08.398Z,97778.62
2018-12-02T10:42:35.571Z,97788.19
2018-12-02T10:45:03.442Z,97794.52
2018-12-02T10:47:31.257Z,97779.50
2018-12-02T10:49:58.461Z,97788.26
2018-12-02T10:52:25.624Z,97782.77
2018-12-02T10:54:52.791Z,97801.51
2018-12-02T10:57:19.948Z,97785.14
2018-12-02T10:59:47.160Z,97781.09
2018-12-02T11:02:15.441Z,97779.55
2018-12-02T11:04:42.580Z,97789.23
2018-12-02T11:07:09.810Z,97785.72
2018-12-02T11:09:37.076Z,97789.30
2018-12-02T11:12:04.581Z,97795.16
2018-12-02T11:14:31.852Z,97787.91
2018-12-02T11:16:58.993Z,97789.28
2018-12-02T11:19:26.203Z,97785.92
2018-12-02T11:21:53.358Z,97775.92
2018-12-02T11:24:21.405Z,97784.11
2018-12-02T11:29:24.909Z,97771.75
2018-12-02T11:31:52.289Z,97767.55
2018-12-02T11:34:19.461Z,97773.23
2018-12-02T11:36:46.660Z,97769.98
2018-12-02T11:39:13.949Z,97770.03
2018-12-02T11:41:41.293Z,97762.48
2018-12-02T11:44:08.504Z,97754.81
2018-12-02T11:46:35.782Z,97756.92
2018-12-02T11:49:02.903Z,97761.66
2018-12-02T11:51:30.059Z,97760.68
2018-12-02T11:53:57.281Z,97764.73
2018-12-02T11:56:24.888Z,97755.11
2018-12-02T11:58:52.172Z,97779.77
2018-12-02T12:01:19.521Z,97766.53
2018-12-02T12:03:46.802Z,97761.83
2018-12-02T12:06:13.993Z,97763.41
2018-12-02T12:08:41.163Z,97771.93
2018-12-02T12:11:08.331Z,97765.63
2018-12-02T12:13:35.484Z,97770.97
2018-12-02T12:16:02.740Z,97772.23
2018-12-02T12:18:30.076Z,97776.64
2018-12-02T12:20:57.287Z,97773.73
2018-12-02T12:23:24.477Z,97769.58
2018-12-02T12:25:51.897Z,97774.79
2018-12-02T12:28:19.642Z,97773.58
2018-12-02T12:30:46.864Z,97782.27
2018-12-02T12:33:14.032Z,97773.09
2018-12-02T12:35:43.910Z,97777.23
2018-12-02T12:38:11.114Z,97778.08
2018-12-02T12:40:38.932Z,97768.02
2018-12-02T12:43:22.386Z,97772.41
2018-12-02T12:45:49.608Z,97786.81
2018-12-02T12:48:17.079Z,97784.80
2018-12-02T12:50:44.263Z,97779.77
2018-12-02T12:53:11.869Z,97744.03
2018-12-02T12:55:38.984Z,97776.16
2018-12-02T12:58:06.917Z,97783.00
2018-12-02T13:00:34.038Z,97794.64
2018-12-02T13:03:01.223Z,97789.67
2018-12-02T13:05:28.481Z,97794.59
2018-12-02T13:07:56.198Z,97787.56
2018-12-02T13:10:23.513Z,97773.79
2018-12-02T13:12:50.768Z,97793.38
2018-12-02T13:15:19.078Z,97791.27
2018-12-02T13:17:55.710Z,97784.16
2018-12-02T13:20:24.071Z,97803.59
2018-12-02T13:22:51.184Z,97790.95
2018-12-02T13:25:18.328Z,97798.90
2018-12-02T13:27:45.773Z,97792.33
2018-12-02T13:30:14.873Z,97793.27
2018-12-02T13:32:42.348Z,97798.67
2018-12-02T13:35:09.809Z,97796.19
2018-12-02T13:37:37.359Z,97802.86
2018-12-02T13:40:20.317Z,97812.72
2018-12-02T13:42:51.094Z,97794.87
2018-12-02T13:45:21.528Z,97811.39
2018-12-02T13:47:48.802Z,97800.53
2018-12-02T13:50:17.887Z,97799.57
2018-12-02T13:52:46.046Z,97794.87
2018-12-02T13:55:15.055Z,97801.97
2018-12-02T13:57:42.297Z,97797.41
2018-12-02T14:00:16.362Z,97807.58
2018-12-02T14:02:44.793Z,97814.36
2018-12-02T14:05:12.050Z,97811.12
2018-12-02T14:07:39.209Z,97827.44
2018-12-02T14:10:08.898Z,97818.42
2018-12-02T14:12:37.132Z,97817.32
2018-12-02T14:16:20.372Z,97829.55
2018-12-02T14:18:47.667Z,97825.75
2018-12-02T14:21:14.979Z,97815.25
2018-12-02T14:23:42.883Z,97829.81
2018-12-02T14:26:12.861Z,97823.83
2018-12-02T14:28:47.296Z,97824.19
2018-12-02T14:31:15.233Z,97818.84
2018-12-02T14:33:42.424Z,97829.97
2018-12-02T14:36:09.547Z,97826.59
2018-12-02T14:38:37.464Z,97826.95
2018-12-02T14:41:05.330Z,97830.77
2018-12-02T14:43:32.593Z,97828.97
2018-12-02T14:45:59.796Z,97828.50
2018-12-02T14:48:27.040Z,97832.90
2018-12-02T14:50:54.232Z,97832.67
2018-12-02T14:53:21.415Z,97836.23
2018-12-02T14:55:48.644Z,97834.70
2018-12-02T14:58:16.186Z,97839.24
2018-12-02T15:00:43.412Z,97845.25
2018-12-02T15:03:10.656Z,97853.19
2018-12-02T15:05:37.918Z,97862.03
2018-12-02T15:08:05.209Z,97850.48
2018-12-02T15:10:32.674Z,97845.44
2018-12-02T15:13:00.014Z,97860.91
2018-12-02T15:15:27.439Z,97855.55
2018-12-02T15:17:54.703Z,97857.09
2018-12-02T15:20:21.874Z,97857.94
2018-12-02T15:22:49.092Z,97858.20
2018-12-02T15:25:16.283Z,97850.20
2018-12-02T15:27:44.048Z,97862.34
2018-12-02T15:30:13.008Z,97858.80
2018-12-02T15:32:41.020Z,97865.78
2018-12-02T15:35:09.204Z,97861.91
2018-12-02T15:37:36.364Z,97871.77
2018-12-02T15:40:04.757Z,97870.95
2018-12-02T15:42:32.012Z,97867.64
2018-12-02T15:44:59.284Z,97867.16
2018-12-02T15:47:26.447Z,97879.02
2018-12-02T15:49:53.656Z,97876.95
2018-12-02T15:52:20.924Z,97868.73
2018-12-02T15:54:48.144Z,97875.53
2018-12-02T15:57:15.554Z,97875.41
2018-12-02T15:59:42.819Z,97870.88
2018-12-02T16:02:10.167Z,97867.05
2018-12-02T16:04:37.446Z,97871.25
2018-12-02T16:07:04.771Z,97877.58
2018-12-02T16:09:31.969Z,97872.28
2018-12-02T16:11:59.228Z,97871.87
2018-12-02T16:14:26.547Z,97871.48
2018-12-02T16:16:54.093Z,97874.80
2018-12-02T16:19:21.305Z,97876.68
2018-12-02T16:21:48.574Z,97875.00
2018-12-02T16:24:15.862Z,97875.17
2018-12-02T16:26:43.362Z,97880.77
2018-12-02T16:29:10.664Z,97881.31
2018-12-02T16:31:37.923Z,97878.30
2018-12-02T16:34:05.459Z,97877.82
2018-12-02T16:36:32.990Z,97890.30
2018-12-02T16:39:00.237Z,97880.34
2018-12-02T16:41:27.556Z,97875.45
2018-12-02T16:43:54.876Z,97887.50
2018-12-02T16:46:22.161Z,97889.36
2018-12-02T16:48:49.373Z,97885.95
2018-12-02T16:51:16.612Z,97896.11
2018-12-02T16:53:43.757Z,97888.16
2018-12-02T16:56:14.794Z,97886.91
2018-12-02T16:58:48.080Z,97898.78
2018-12-02T17:01:19.600Z,97895.03
2018-12-02T17:03:47.279Z,97898.98
2018-12-02T17:06:14.553Z,97893.59
2018-12-02T17:08:41.764Z,97889.92
2018-12-02T17:11:08.984Z,97896.19
2018-12-02T17:13:36.266Z,97893.33
2018-12-02T17:16:03.601Z,97864.38
2018-12-02T17:18:30.812Z,97890.20
2018-12-02T17:20:58.029Z,97898.14
2018-12-02T17:23:25.173Z,97888.70
2018-12-02T17:25:52.531Z,97887.92
2018-12-02T17:28:19.725Z,97886.17
2018-12-02T17:30:49.672Z,97891.67
2018-12-02T17:33:16.890Z,97906.95
2018-12-02T17:35:44.122Z,97899.84
2018-12-02T17:38:11.272Z,97893.53
2018-12-02T17:40:38.412Z,97891.37
2018-12-02T17:43:08.052Z,97878.38
2018-12-02T17:45:35.416Z,97873.98
2018-12-02T17:48:02.759Z,97874.20
2018-12-02T17:50:30.013Z,97865.78
2018-12-02T17:52:57.335Z,97869.92
2018-12-02T17:55:24.553Z,97869.63
2018-12-02T17:57:52.152Z,97887.98
2018-12-02T18:00:21.124Z,97883.73
2018-12-02T18:02:48.324Z,97883.09
2018-12-02T18:05:17.692Z,97883.09
2018-12-02T18:07:44.805Z,97888.69
2018-12-02T18:10:13.163Z,97896.00
2018-12-02T18:12:43.424Z,97893.94
2018-12-02T18:15:12.560Z,97894.42
2018-12-02T18:17:39.716Z,97901.93
2018-12-02T18:20:15.076Z,97898.70
2018-12-02T18:22:42.263Z,97898.70
2018-12-02T18:25:10.658Z,97912.30
2018-12-02T18:27:37.777Z,97905.50
2018-12-02T18:30:13.401Z,97911.89
2018-12-02T18:32:40.574Z,97913.97
2018-12-02T18:35:46.856Z,97907.52
2018-12-02T18:38:16.475Z,97906.45
2018-12-02T18:40:48.295Z,97905.30
2018-12-02T18:43:15.528Z,97908.99
2018-12-02T18:45:42.730Z,97902.11
2018-12-02T18:48:09.888Z,97924.27
2018-12-02T18:50:37.086Z,97914.03
2018-12-02T18:53:04.979Z,97899.47
2018-12-02T18:55:32.143Z,97906.14
2018-12-02T18:57:59.377Z,97899.83
2018-12-02T19:00:32.234Z,97889.66
2018-12-02T19:02:59.374Z,97902.86
2018-12-02T19:05:26.538Z,97901.89
2018-12-02T19:07:53.688Z,97907.67
2018-12-02T19:10:22.629Z,97899.72
2018-12-02T19:12:49.977Z,97899.72
2018-12-02T19:15:17.169Z,97883.42
2018-12-02T19:17:44.640Z,97896.67
2018-12-02T19:20:16.306Z,97888.16
2018-12-02T19:22:44.282Z,97890.27
2018-12-02T19:25:13.040Z,97885.87
2018-12-02T19:27:40.196Z,97892.01
2018-12-02T19:30:15.842Z,97896.10
2018-12-02T19:32:43.551Z,97886.66
2018-12-02T19:35:22.300Z,97898.88
2018-12-02T19:37:51.480Z,97892.63
2018-12-02T19:40:18.676Z,97894.66
2018-12-02T19:42:45.886Z,97899.31
2018-12-02T19:45:19.164Z,97896.72
2018-12-02T19:47:46.428Z,97903.70
2018-12-02T19:50:18.347Z,97900.64
2018-12-02T19:52:45.962Z,97908.51
2018-12-02T19:55:13.603Z,97900.56
2018-12-02T19:57:42.324Z,97902.73
2018-12-02T20:00:30.378Z,97905.94
2018-12-02T20:02:57.598Z,97902.98
2018-12-02T20:05:25.760Z,97907.84
2018-12-02T20:07:56.864Z,97900.25
2018-12-02T20:10:27.945Z,97897.55
2018-12-02T20:13:00.072Z,97903.28
2018-12-02T20:15:27.276Z,97901.95
2018-12-02T20:17:54.511Z,97896.92
2018-12-02T20:20:27.227Z,97898.34
2018-12-02T20:22:54.473Z,97896.13
2018-12-02T20:25:23.443Z,97902.31
2018-12-02T20:27:53.450Z,97891.95
2018-12-02T20:30:21.309Z,97892.20
2018-12-02T20:32:48.610Z,97893.23
2018-12-02T20:35:15.737Z,97883.63
2018-12-02T20:37:42.985Z,97878.54
2018-12-02T20:40:16.279Z,97882.15
2018-12-02T20:42:44.693Z,97875.58
2018-12-02T20:45:12.923Z,97875.76
2018-12-02T20:47:40.225Z,97877.51
2018-12-02T20:50:08.887Z,97871.30
2018-12-02T20:52:36.069Z,97873.47
2018-12-02T20:55:05.085Z,97871.44
2018-12-02T20:57:32.272Z,97874.20
2018-12-02T20:59:59.479Z,97882.70
2018-12-02T21:02:26.781Z,97866.91
2018-12-02T21:04:54.139Z,97869.41
2018-12-02T21:07:21.319Z,97867.60
2018-12-02T21:09:48.497Z,97867.60
2018-12-02T21:12:15.824Z,97871.38
2018-12-02T21:14:43.147Z,97860.08
2018-12-02T21:17:10.317Z,97858.98
2018-12-02T21:19:37.525Z,97859.29
2018-12-02T21:22:05.108Z,97849.23
2018-12-02T21:24:32.239Z,97859.29
2018-12-02T21:26:59.374Z,97862.25
2018-12-02T21:29:26.528Z,97861.82
2018-12-02T21:31:53.745Z,97864.63
2018-12-02T21:34:20.933Z,97858.31
2018-12-02T21:36:48.131Z,97864.14
2018-12-02T21:39:15.313Z,97864.27
2018-12-02T21:41:42.497Z,97855.36
2018-12-02T21:44:10.491Z,97857.84
2018-12-02T21:46:37.698Z,97858.85
2018-12-02T21:49:05.408Z,97862.83
2018-12-02T21:51:32.556Z,97852.90
2018-12-02T21:53:59.708Z,97852.28
2018-12-02T21:56:26.873Z,97856.25
2018-12-02T21:58:54.064Z,97835.69
2018-12-02T22:01:21.221Z,97840.09
2018-12-02T22:03:48.387Z,97843.44
2018-12-02T22:06:15.573Z,97838.94
2018-12-02T22:08:42.754Z,97845.97
2018-12-02T22:11:09.911Z,97845.66
2018-12-02T22:13:37.104Z,97853.61
2018-12-02T22:16:04.373Z,97853.33
2018-12-02T22:18:31.549Z,97847.47
2018-12-02T22:20:58.689Z,97854.46
2018-12-02T22:23:25.914Z,97846.88
2018-12-02T22:25:53.077Z,97840.93
2018-12-02T22:28:20.206Z,97846.63
2018-12-02T22:30:47.456Z,97838.98
2018-12-02T22:33:15.128Z,97836.11
2018-12-02T22:35:42.321Z,97844.71
2018-12-02T22:38:09.556Z,97840.62
2018-12-02T22:40:36.806Z,97843.33
2018-12-02T22:43:04.187Z,97844.77
2018-12-02T22:45:31.358Z,97851.64
2018-12-02T22:47:58.580Z,97840.26
2018-12-02T22:50:27.724Z,97840.99
2018-12-02T22:52:56.110Z,97842.06
2018-12-02T22:55:23.307Z,97844.23
2018-12-02T22:57:50.884Z,97829.30
2018-12-02T23:00:26.845Z,97829.19
2018-12-02T23:03:08.982Z,97827.61
2018-12-02T23:05:36.182Z,97833.53
2018-12-02T23:08:03.392Z,97822.26
2018-12-02T23:10:30.600Z,97819.66
2018-12-02T23:12:57.843Z,97824.80
2018-12-02T23:15:25.105Z,97823.69
2018-12-02T23:17:52.252Z,97821.25
2018-12-02T23:20:19.449Z,97832.43
2018-12-02T23:22:46.624Z,97820.08
2018-12-02T23:25:14.704Z,97804.50
2018-12-02T23:27:41.961Z,97811.77
2018-12-02T23:30:16.505Z,97803.77
2018-12-02T23:32:43.800Z,97793.43
2018-12-02T23:35:10.971Z,97592.33
2018-12-02T23:37:38.192Z,97806.25
2018-12-02T23:40:11.593Z,97801.48
2018-12-02T23:42:38.788Z,97797.03
2018-12-02T23:45:07.874Z,97796.78
2018-12-02T23:47:35.157Z,97807.32
2018-12-02T23:50:02.380Z,97794.87
2018-12-02T23:52:29.735Z,97791.73
2018-12-02T23:54:56.943Z,97792.22
2018-12-02T23:57:24.161Z,97804.08
2018-12-02T23:59:51.364Z,97795.23
